sensor_id;sensor_type;location;lat;lon;timestamp;P1;durP1;ratioP1;P2;durP2;ratioP2
15567;SDS011;7885;42.596;23.044;2022-09-09T00:02:09;11.67;;;9.70;;
15567;SDS011;7885;42.596;23.044;2022-09-09T00:04:45;10.10;;;9.20;;
15567;SDS011;7885;42.596;23.044;2022-09-09T00:07:25;10.50;;;9.40;;
15567;SDS011;7885;42.596;23.044;2022-09-09T00:10:09;13.17;;;9.40;;
15567;SDS011;7885;42.596;23.044;2022-09-09T00:12:46;10.77;;;9.67;;
15567;SDS011;7885;42.596;23.044;2022-09-09T00:15:21;13.77;;;9.00;;
15567;SDS011;7885;42.596;23.044;2022-09-09T00:17:52;11.17;;;10.17;;
15567;SDS011;7885;42.596;23.044;2022-09-09T00:20:24;11.67;;;10.43;;
15567;SDS011;7885;42.596;23.044;2022-09-09T00:22:57;11.00;;;10.00;;
15567;SDS011;7885;42.596;23.044;2022-09-09T00:25:33;10.97;;;9.73;;
15567;SDS011;7885;42.596;23.044;2022-09-09T00:28:08;11.93;;;10.73;;
15567;SDS011;7885;42.596;23.044;2022-09-09T00:30:43;11.47;;;10.33;;
15567;SDS011;7885;42.596;23.044;2022-09-09T00:33:13;11.93;;;10.33;;
15567;SDS011;7885;42.596;23.044;2022-09-09T00:35:44;13.07;;;10.10;;
15567;SDS011;7885;42.596;23.044;2022-09-09T00:38:13;13.70;;;10.47;;
15567;SDS011;7885;42.596;23.044;2022-09-09T00:40:47;13.13;;;10.63;;
15567;SDS011;7885;42.596;23.044;2022-09-09T00:43:24;11.20;;;10.10;;
15567;SDS011;7885;42.596;23.044;2022-09-09T00:48:54;13.73;;;9.67;;
15567;SDS011;7885;42.596;23.044;2022-09-09T00:51:33;13.57;;;10.30;;
15567;SDS011;7885;42.596;23.044;2022-09-09T00:54:12;11.90;;;10.47;;
15567;SDS011;7885;42.596;23.044;2022-09-09T00:56:52;12.00;;;10.23;;
15567;SDS011;7885;42.596;23.044;2022-09-09T00:59:32;12.63;;;10.90;;
15567;SDS011;7885;42.596;23.044;2022-09-09T01:02:09;11.70;;;10.60;;
15567;SDS011;7885;42.596;23.044;2022-09-09T01:04:43;12.43;;;10.47;;
15567;SDS011;7885;42.596;23.044;2022-09-09T01:07:12;12.07;;;10.87;;
15567;SDS011;7885;42.596;23.044;2022-09-09T01:09:45;15.03;;;10.13;;
15567;SDS011;7885;42.596;23.044;2022-09-09T01:19:04;16.97;;;12.83;;
15567;SDS011;7885;42.596;23.044;2022-09-09T01:21:39;18.13;;;12.03;;
15567;SDS011;7885;42.596;23.044;2022-09-09T01:24:15;14.97;;;10.93;;
15567;SDS011;7885;42.596;23.044;2022-09-09T01:26:50;13.07;;;10.70;;
15567;SDS011;7885;42.596;23.044;2022-09-09T01:29:20;13.23;;;9.77;;
15567;SDS011;7885;42.596;23.044;2022-09-09T01:31:52;13.47;;;9.97;;
15567;SDS011;7885;42.596;23.044;2022-09-09T01:34:22;26.23;;;11.53;;
15567;SDS011;7885;42.596;23.044;2022-09-09T01:36:51;19.77;;;11.40;;
15567;SDS011;7885;42.596;23.044;2022-09-09T01:46:08;17.67;;;10.53;;
15567;SDS011;7885;42.596;23.044;2022-09-09T01:48:37;19.47;;;12.10;;
15567;SDS011;7885;42.596;23.044;2022-09-09T01:51:04;13.33;;;11.97;;
15567;SDS011;7885;42.596;23.044;2022-09-09T01:53:31;13.97;;;12.53;;
15567;SDS011;7885;42.596;23.044;2022-09-09T01:56:01;17.77;;;11.80;;
15567;SDS011;7885;42.596;23.044;2022-09-09T01:58:39;20.60;;;13.23;;
15567;SDS011;7885;42.596;23.044;2022-09-09T02:01:21;14.40;;;12.97;;
15567;SDS011;7885;42.596;23.044;2022-09-09T02:03:55;13.87;;;12.50;;
15567;SDS011;7885;42.596;23.044;2022-09-09T02:06:25;12.37;;;11.00;;
15567;SDS011;7885;42.596;23.044;2022-09-09T02:08:57;14.17;;;11.83;;
15567;SDS011;7885;42.596;23.044;2022-09-09T02:11:26;12.30;;;11.10;;
15567;SDS011;7885;42.596;23.044;2022-09-09T02:13:54;14.23;;;12.13;;
15567;SDS011;7885;42.596;23.044;2022-09-09T02:16:28;13.20;;;11.83;;
15567;SDS011;7885;42.596;23.044;2022-09-09T02:19:00;13.87;;;12.40;;
15567;SDS011;7885;42.596;23.044;2022-09-09T02:21:30;16.70;;;12.67;;
15567;SDS011;7885;42.596;23.044;2022-09-09T02:24:00;14.23;;;12.73;;
15567;SDS011;7885;42.596;23.044;2022-09-09T02:26:29;14.17;;;11.10;;
15567;SDS011;7885;42.596;23.044;2022-09-09T02:28:59;13.50;;;12.17;;
15567;SDS011;7885;42.596;23.044;2022-09-09T02:31:30;14.07;;;12.77;;
15567;SDS011;7885;42.596;23.044;2022-09-09T02:34:00;14.10;;;12.70;;
15567;SDS011;7885;42.596;23.044;2022-09-09T02:36:31;13.70;;;12.43;;
15567;SDS011;7885;42.596;23.044;2022-09-09T02:39:00;15.10;;;11.43;;
15567;SDS011;7885;42.596;23.044;2022-09-09T02:41:30;13.80;;;11.80;;
15567;SDS011;7885;42.596;23.044;2022-09-09T02:43:59;12.93;;;11.67;;
15567;SDS011;7885;42.596;23.044;2022-09-09T02:46:35;14.47;;;13.07;;
15567;SDS011;7885;42.596;23.044;2022-09-09T02:49:10;13.77;;;12.37;;
15567;SDS011;7885;42.596;23.044;2022-09-09T02:51:45;16.17;;;12.70;;
15567;SDS011;7885;42.596;23.044;2022-09-09T02:54:21;13.33;;;11.93;;
15567;SDS011;7885;42.596;23.044;2022-09-09T02:56:55;12.70;;;11.37;;
15567;SDS011;7885;42.596;23.044;2022-09-09T02:59:29;17.17;;;11.87;;
15567;SDS011;7885;42.596;23.044;2022-09-09T03:01:58;14.30;;;11.80;;
15567;SDS011;7885;42.596;23.044;2022-09-09T03:04:24;13.77;;;12.27;;
15567;SDS011;7885;42.596;23.044;2022-09-09T03:06:51;13.97;;;12.13;;
15567;SDS011;7885;42.596;23.044;2022-09-09T03:09:18;12.87;;;11.63;;
15567;SDS011;7885;42.596;23.044;2022-09-09T03:11:45;12.90;;;11.53;;
15567;SDS011;7885;42.596;23.044;2022-09-09T03:14:11;14.67;;;12.80;;
15567;SDS011;7885;42.596;23.044;2022-09-09T03:16:38;13.23;;;11.83;;
15567;SDS011;7885;42.596;23.044;2022-09-09T03:19:06;13.70;;;12.40;;
15567;SDS011;7885;42.596;23.044;2022-09-09T03:21:33;14.43;;;13.00;;
15567;SDS011;7885;42.596;23.044;2022-09-09T03:23:59;16.40;;;12.87;;
15567;SDS011;7885;42.596;23.044;2022-09-09T03:26:28;14.17;;;12.67;;
15567;SDS011;7885;42.596;23.044;2022-09-09T03:28:55;13.83;;;12.53;;
15567;SDS011;7885;42.596;23.044;2022-09-09T03:31:22;14.17;;;12.37;;
15567;SDS011;7885;42.596;23.044;2022-09-09T03:33:49;13.80;;;12.30;;
15567;SDS011;7885;42.596;23.044;2022-09-09T03:36:17;15.53;;;10.80;;
15567;SDS011;7885;42.596;23.044;2022-09-09T03:38:43;13.17;;;11.87;;
15567;SDS011;7885;42.596;23.044;2022-09-09T03:41:10;13.73;;;12.27;;
15567;SDS011;7885;42.596;23.044;2022-09-09T03:43:37;16.80;;;11.20;;
15567;SDS011;7885;42.596;23.044;2022-09-09T03:46:04;12.87;;;10.47;;
15567;SDS011;7885;42.596;23.044;2022-09-09T03:48:31;13.40;;;11.13;;
15567;SDS011;7885;42.596;23.044;2022-09-09T03:50:57;13.13;;;11.10;;
15567;SDS011;7885;42.596;23.044;2022-09-09T03:53:28;12.67;;;11.43;;
15567;SDS011;7885;42.596;23.044;2022-09-09T03:55:56;12.77;;;11.30;;
15567;SDS011;7885;42.596;23.044;2022-09-09T03:58:25;12.17;;;10.73;;
15567;SDS011;7885;42.596;23.044;2022-09-09T04:04:21;13.00;;;11.80;;
15567;SDS011;7885;42.596;23.044;2022-09-09T04:06:47;12.93;;;11.63;;
15567;SDS011;7885;42.596;23.044;2022-09-09T04:09:17;14.07;;;12.67;;
15567;SDS011;7885;42.596;23.044;2022-09-09T04:11:44;14.27;;;12.47;;
15567;SDS011;7885;42.596;23.044;2022-09-09T04:14:11;13.10;;;11.90;;
15567;SDS011;7885;42.596;23.044;2022-09-09T04:16:38;14.30;;;12.73;;
15567;SDS011;7885;42.596;23.044;2022-09-09T04:19:08;15.23;;;13.73;;
15567;SDS011;7885;42.596;23.044;2022-09-09T04:21:37;16.23;;;14.30;;
15567;SDS011;7885;42.596;23.044;2022-09-09T04:24:06;15.97;;;14.27;;
15567;SDS011;7885;42.596;23.044;2022-09-09T04:26:34;16.50;;;13.27;;
15567;SDS011;7885;42.596;23.044;2022-09-09T04:29:02;16.13;;;14.43;;
15567;SDS011;7885;42.596;23.044;2022-09-09T04:31:30;15.47;;;13.77;;
15567;SDS011;7885;42.596;23.044;2022-09-09T04:33:57;14.67;;;13.20;;
15567;SDS011;7885;42.596;23.044;2022-09-09T04:36:27;15.43;;;13.73;;
15567;SDS011;7885;42.596;23.044;2022-09-09T04:38:54;18.23;;;13.90;;
15567;SDS011;7885;42.596;23.044;2022-09-09T04:41:21;15.07;;;13.53;;
15567;SDS011;7885;42.596;23.044;2022-09-09T04:43:49;14.90;;;13.40;;
15567;SDS011;7885;42.596;23.044;2022-09-09T04:46:18;16.53;;;13.47;;
15567;SDS011;7885;42.596;23.044;2022-09-09T04:48:45;14.20;;;12.80;;
15567;SDS011;7885;42.596;23.044;2022-09-09T04:51:13;13.97;;;12.60;;
15567;SDS011;7885;42.596;23.044;2022-09-09T04:53:40;13.30;;;12.07;;
15567;SDS011;7885;42.596;23.044;2022-09-09T04:56:08;14.70;;;12.57;;
15567;SDS011;7885;42.596;23.044;2022-09-09T04:58:36;14.80;;;13.40;;
15567;SDS011;7885;42.596;23.044;2022-09-09T05:01:08;14.30;;;12.77;;
15567;SDS011;7885;42.596;23.044;2022-09-09T05:03:36;20.00;;;13.23;;
15567;SDS011;7885;42.596;23.044;2022-09-09T05:06:07;14.43;;;12.93;;
15567;SDS011;7885;42.596;23.044;2022-09-09T05:08:36;14.50;;;13.17;;
15567;SDS011;7885;42.596;23.044;2022-09-09T05:11:03;14.67;;;13.07;;
15567;SDS011;7885;42.596;23.044;2022-09-09T05:13:30;14.77;;;13.17;;
15567;SDS011;7885;42.596;23.044;2022-09-09T05:16:14;15.27;;;13.07;;
15567;SDS011;7885;42.596;23.044;2022-09-09T05:18:41;14.20;;;12.90;;
15567;SDS011;7885;42.596;23.044;2022-09-09T05:21:09;16.80;;;13.23;;
15567;SDS011;7885;42.596;23.044;2022-09-09T05:23:36;15.40;;;13.07;;
15567;SDS011;7885;42.596;23.044;2022-09-09T05:26:03;15.00;;;13.50;;
15567;SDS011;7885;42.596;23.044;2022-09-09T05:28:31;14.73;;;13.17;;
15567;SDS011;7885;42.596;23.044;2022-09-09T05:31:01;16.50;;;13.77;;
15567;SDS011;7885;42.596;23.044;2022-09-09T05:33:31;15.33;;;13.80;;
15567;SDS011;7885;42.596;23.044;2022-09-09T05:35:58;15.23;;;13.37;;
15567;SDS011;7885;42.596;23.044;2022-09-09T05:38:26;15.23;;;13.73;;
15567;SDS011;7885;42.596;23.044;2022-09-09T05:44:15;16.83;;;14.00;;
15567;SDS011;7885;42.596;23.044;2022-09-09T05:46:42;15.33;;;13.53;;
15567;SDS011;7885;42.596;23.044;2022-09-09T05:49:11;15.27;;;13.77;;
15567;SDS011;7885;42.596;23.044;2022-09-09T05:51:37;17.10;;;15.23;;
15567;SDS011;7885;42.596;23.044;2022-09-09T05:54:05;15.43;;;13.83;;
15567;SDS011;7885;42.596;23.044;2022-09-09T05:56:32;15.37;;;13.97;;
15567;SDS011;7885;42.596;23.044;2022-09-09T05:58:58;16.03;;;13.77;;
15567;SDS011;7885;42.596;23.044;2022-09-09T06:01:26;18.40;;;13.87;;
15567;SDS011;7885;42.596;23.044;2022-09-09T06:03:54;15.83;;;14.23;;
15567;SDS011;7885;42.596;23.044;2022-09-09T06:06:23;18.77;;;14.20;;
15567;SDS011;7885;42.596;23.044;2022-09-09T06:15:35;14.03;;;12.50;;
15567;SDS011;7885;42.596;23.044;2022-09-09T06:18:02;14.17;;;12.03;;
15567;SDS011;7885;42.596;23.044;2022-09-09T06:20:28;17.90;;;12.87;;
15567;SDS011;7885;42.596;23.044;2022-09-09T06:22:58;14.80;;;13.33;;
15567;SDS011;7885;42.596;23.044;2022-09-09T06:25:25;15.50;;;11.60;;
15567;SDS011;7885;42.596;23.044;2022-09-09T06:27:51;14.23;;;12.30;;
15567;SDS011;7885;42.596;23.044;2022-09-09T06:30:18;17.23;;;11.87;;
15567;SDS011;7885;42.596;23.044;2022-09-09T06:32:45;13.20;;;11.80;;
15567;SDS011;7885;42.596;23.044;2022-09-09T06:35:12;17.47;;;12.60;;
15567;SDS011;7885;42.596;23.044;2022-09-09T06:37:38;12.90;;;11.63;;
15567;SDS011;7885;42.596;23.044;2022-09-09T06:40:07;13.40;;;12.07;;
15567;SDS011;7885;42.596;23.044;2022-09-09T06:42:34;13.50;;;11.13;;
15567;SDS011;7885;42.596;23.044;2022-09-09T06:45:01;12.57;;;10.80;;
15567;SDS011;7885;42.596;23.044;2022-09-09T06:47:28;13.40;;;10.63;;
15567;SDS011;7885;42.596;23.044;2022-09-09T06:49:55;14.53;;;12.10;;
15567;SDS011;7885;42.596;23.044;2022-09-09T06:52:22;13.90;;;12.30;;
15567;SDS011;7885;42.596;23.044;2022-09-09T06:54:49;13.83;;;11.63;;
15567;SDS011;7885;42.596;23.044;2022-09-09T06:57:17;11.53;;;10.37;;
15567;SDS011;7885;42.596;23.044;2022-09-09T06:59:44;11.07;;;9.90;;
15567;SDS011;7885;42.596;23.044;2022-09-09T07:02:11;11.83;;;8.53;;
15567;SDS011;7885;42.596;23.044;2022-09-09T07:04:38;13.37;;;7.40;;
15567;SDS011;7885;42.596;23.044;2022-09-09T07:07:05;10.57;;;8.00;;
15567;SDS011;7885;42.596;23.044;2022-09-09T07:09:32;10.57;;;7.00;;
15567;SDS011;7885;42.596;23.044;2022-09-09T07:11:59;10.97;;;6.87;;
15567;SDS011;7885;42.596;23.044;2022-09-09T07:14:28;11.83;;;7.10;;
15567;SDS011;7885;42.596;23.044;2022-09-09T07:16:54;10.37;;;7.53;;
15567;SDS011;7885;42.596;23.044;2022-09-09T07:19:22;10.43;;;6.70;;
15567;SDS011;7885;42.596;23.044;2022-09-09T07:21:49;12.10;;;7.67;;
15567;SDS011;7885;42.596;23.044;2022-09-09T07:24:15;10.63;;;7.67;;
15567;SDS011;7885;42.596;23.044;2022-09-09T07:26:42;10.87;;;7.23;;
15567;SDS011;7885;42.596;23.044;2022-09-09T07:29:11;11.80;;;7.33;;
15567;SDS011;7885;42.596;23.044;2022-09-09T07:31:40;9.57;;;6.87;;
15567;SDS011;7885;42.596;23.044;2022-09-09T07:34:07;8.53;;;6.80;;
15567;SDS011;7885;42.596;23.044;2022-09-09T07:36:35;10.40;;;7.00;;
15567;SDS011;7885;42.596;23.044;2022-09-09T07:39:04;10.30;;;6.93;;
15567;SDS011;7885;42.596;23.044;2022-09-09T07:41:33;7.93;;;6.10;;
15567;SDS011;7885;42.596;23.044;2022-09-09T07:44:03;8.60;;;6.67;;
15567;SDS011;7885;42.596;23.044;2022-09-09T07:46:31;14.20;;;6.77;;
15567;SDS011;7885;42.596;23.044;2022-09-09T07:49:00;10.97;;;6.23;;
15567;SDS011;7885;42.596;23.044;2022-09-09T07:51:27;8.30;;;6.17;;
15567;SDS011;7885;42.596;23.044;2022-09-09T07:53:56;9.40;;;6.53;;
15567;SDS011;7885;42.596;23.044;2022-09-09T07:56:25;7.90;;;6.53;;
15567;SDS011;7885;42.596;23.044;2022-09-09T07:58:53;11.80;;;6.43;;
15567;SDS011;7885;42.596;23.044;2022-09-09T08:01:22;10.80;;;6.47;;
15567;SDS011;7885;42.596;23.044;2022-09-09T08:03:54;8.83;;;6.40;;
15567;SDS011;7885;42.596;23.044;2022-09-09T08:06:25;7.87;;;6.70;;
15567;SDS011;7885;42.596;23.044;2022-09-09T08:08:53;13.13;;;7.30;;
15567;SDS011;7885;42.596;23.044;2022-09-09T08:11:20;12.17;;;7.27;;
15567;SDS011;7885;42.596;23.044;2022-09-09T08:13:49;10.93;;;6.80;;
15567;SDS011;7885;42.596;23.044;2022-09-09T08:16:17;11.53;;;7.40;;
15567;SDS011;7885;42.596;23.044;2022-09-09T08:18:46;9.27;;;6.30;;
15567;SDS011;7885;42.596;23.044;2022-09-09T08:21:14;8.67;;;6.17;;
15567;SDS011;7885;42.596;23.044;2022-09-09T08:23:44;11.33;;;7.50;;
15567;SDS011;7885;42.596;23.044;2022-09-09T08:26:13;9.60;;;7.27;;
15567;SDS011;7885;42.596;23.044;2022-09-09T08:28:41;10.63;;;7.23;;
15567;SDS011;7885;42.596;23.044;2022-09-09T08:31:10;11.20;;;6.90;;
15567;SDS011;7885;42.596;23.044;2022-09-09T08:33:38;10.97;;;7.27;;
15567;SDS011;7885;42.596;23.044;2022-09-09T08:36:06;10.53;;;7.43;;
15567;SDS011;7885;42.596;23.044;2022-09-09T08:38:37;10.32;;;6.60;;
15567;SDS011;7885;42.596;23.044;2022-09-09T08:41:10;12.40;;;6.63;;
15567;SDS011;7885;42.596;23.044;2022-09-09T08:43:51;10.25;;;6.70;;
15567;SDS011;7885;42.596;23.044;2022-09-09T08:46:30;9.90;;;5.93;;
15567;SDS011;7885;42.596;23.044;2022-09-09T08:49:05;10.90;;;6.35;;
15567;SDS011;7885;42.596;23.044;2022-09-09T08:51:40;10.52;;;6.57;;
15567;SDS011;7885;42.596;23.044;2022-09-09T08:54:07;11.90;;;6.70;;
15567;SDS011;7885;42.596;23.044;2022-09-09T08:56:36;12.00;;;6.47;;
15567;SDS011;7885;42.596;23.044;2022-09-09T08:59:03;11.90;;;7.00;;
15567;SDS011;7885;42.596;23.044;2022-09-09T09:01:41;10.32;;;6.68;;
15567;SDS011;7885;42.596;23.044;2022-09-09T09:04:24;8.75;;;6.53;;
15567;SDS011;7885;42.596;23.044;2022-09-09T09:07:01;11.18;;;6.43;;
15567;SDS011;7885;42.596;23.044;2022-09-09T09:09:41;14.95;;;6.60;;
15567;SDS011;7885;42.596;23.044;2022-09-09T09:12:20;9.52;;;6.85;;
15567;SDS011;7885;42.596;23.044;2022-09-09T09:14:49;10.27;;;6.75;;
15567;SDS011;7885;42.596;23.044;2022-09-09T09:17:17;10.80;;;6.22;;
15567;SDS011;7885;42.596;23.044;2022-09-09T09:19:45;12.40;;;7.03;;
15567;SDS011;7885;42.596;23.044;2022-09-09T09:22:16;10.48;;;6.53;;
15567;SDS011;7885;42.596;23.044;2022-09-09T09:24:49;10.35;;;6.03;;
15567;SDS011;7885;42.596;23.044;2022-09-09T09:27:21;9.25;;;6.70;;
15567;SDS011;7885;42.596;23.044;2022-09-09T09:29:57;18.00;;;7.43;;
15567;SDS011;7885;42.596;23.044;2022-09-09T09:35:56;12.23;;;7.57;;
15567;SDS011;7885;42.596;23.044;2022-09-09T09:38:25;13.80;;;7.03;;
15567;SDS011;7885;42.596;23.044;2022-09-09T09:40:54;10.23;;;6.45;;
15567;SDS011;7885;42.596;23.044;2022-09-09T09:43:26;9.25;;;6.57;;
15567;SDS011;7885;42.596;23.044;2022-09-09T09:45:54;9.77;;;6.38;;
15567;SDS011;7885;42.596;23.044;2022-09-09T09:48:23;9.18;;;6.43;;
15567;SDS011;7885;42.596;23.044;2022-09-09T09:50:51;12.80;;;7.00;;
15567;SDS011;7885;42.596;23.044;2022-09-09T09:53:20;10.63;;;6.60;;
15567;SDS011;7885;42.596;23.044;2022-09-09T09:55:52;11.95;;;6.78;;
15567;SDS011;7885;42.596;23.044;2022-09-09T09:58:21;9.35;;;6.97;;
15567;SDS011;7885;42.596;23.044;2022-09-09T10:00:49;10.15;;;7.75;;
15567;SDS011;7885;42.596;23.044;2022-09-09T10:03:20;7.13;;;6.47;;
15567;SDS011;7885;42.596;23.044;2022-09-09T10:05:49;8.98;;;6.82;;
15567;SDS011;7885;42.596;23.044;2022-09-09T10:08:17;10.23;;;6.90;;
15567;SDS011;7885;42.596;23.044;2022-09-09T10:13:38;11.80;;;6.97;;
15567;SDS011;7885;42.596;23.044;2022-09-09T10:16:21;7.72;;;6.13;;
15567;SDS011;7885;42.596;23.044;2022-09-09T10:18:59;9.57;;;6.05;;
15567;SDS011;7885;42.596;23.044;2022-09-09T10:24:36;7.50;;;6.00;;
15567;SDS011;7885;42.596;23.044;2022-09-09T10:27:21;7.70;;;6.78;;
15567;SDS011;7885;42.596;23.044;2022-09-09T10:30:06;6.97;;;6.30;;
15567;SDS011;7885;42.596;23.044;2022-09-09T10:32:40;8.67;;;6.43;;
15567;SDS011;7885;42.596;23.044;2022-09-09T10:35:12;7.18;;;6.28;;
15567;SDS011;7885;42.596;23.044;2022-09-09T10:38:09;7.50;;;6.57;;
15567;SDS011;7885;42.596;23.044;2022-09-09T10:40:42;7.57;;;6.57;;
15567;SDS011;7885;42.596;23.044;2022-09-09T10:43:19;7.83;;;7.03;;
15567;SDS011;7885;42.596;23.044;2022-09-09T10:45:57;9.87;;;8.30;;
15567;SDS011;7885;42.596;23.044;2022-09-09T10:48:37;7.83;;;7.23;;
15567;SDS011;7885;42.596;23.044;2022-09-09T10:51:18;11.23;;;8.03;;
15567;SDS011;7885;42.596;23.044;2022-09-09T10:53:52;9.97;;;8.20;;
15567;SDS011;7885;42.596;23.044;2022-09-09T10:56:30;11.33;;;8.27;;
15567;SDS011;7885;42.596;23.044;2022-09-09T10:58:59;8.98;;;7.85;;
15567;SDS011;7885;42.596;23.044;2022-09-09T11:01:29;8.10;;;7.30;;
15567;SDS011;7885;42.596;23.044;2022-09-09T11:04:05;10.80;;;7.70;;
15567;SDS011;7885;42.596;23.044;2022-09-09T11:06:41;10.82;;;7.43;;
15567;SDS011;7885;42.596;23.044;2022-09-09T11:09:13;8.37;;;7.17;;
15567;SDS011;7885;42.596;23.044;2022-09-09T11:11:45;8.07;;;7.27;;
15567;SDS011;7885;42.596;23.044;2022-09-09T11:14:19;9.55;;;7.13;;
15567;SDS011;7885;42.596;23.044;2022-09-09T11:16:51;9.27;;;7.60;;
15567;SDS011;7885;42.596;23.044;2022-09-09T11:19:21;8.13;;;7.33;;
15567;SDS011;7885;42.596;23.044;2022-09-09T11:21:53;9.77;;;7.63;;
15567;SDS011;7885;42.596;23.044;2022-09-09T11:24:25;8.27;;;7.57;;
15567;SDS011;7885;42.596;23.044;2022-09-09T11:26:57;8.83;;;7.50;;
15567;SDS011;7885;42.596;23.044;2022-09-09T11:32:43;8.57;;;7.18;;
15567;SDS011;7885;42.596;23.044;2022-09-09T11:35:33;8.43;;;7.07;;
15567;SDS011;7885;42.596;23.044;2022-09-09T11:40:56;7.82;;;6.90;;
15567;SDS011;7885;42.596;23.044;2022-09-09T11:43:27;7.05;;;6.45;;
15567;SDS011;7885;42.596;23.044;2022-09-09T11:45:57;7.57;;;6.80;;
15567;SDS011;7885;42.596;23.044;2022-09-09T11:48:29;8.13;;;6.95;;
15567;SDS011;7885;42.596;23.044;2022-09-09T11:51:02;9.80;;;7.40;;
15567;SDS011;7885;42.596;23.044;2022-09-09T11:53:32;7.77;;;6.97;;
15567;SDS011;7885;42.596;23.044;2022-09-09T11:56:07;9.50;;;7.00;;
15567;SDS011;7885;42.596;23.044;2022-09-09T11:58:41;7.90;;;6.73;;
15567;SDS011;7885;42.596;23.044;2022-09-09T12:01:34;7.30;;;6.57;;
15567;SDS011;7885;42.596;23.044;2022-09-09T12:04:06;8.33;;;6.63;;
15567;SDS011;7885;42.596;23.044;2022-09-09T12:06:59;7.80;;;7.10;;
15567;SDS011;7885;42.596;23.044;2022-09-09T12:09:30;7.57;;;6.87;;
15567;SDS011;7885;42.596;23.044;2022-09-09T12:14:57;8.73;;;7.50;;
15567;SDS011;7885;42.596;23.044;2022-09-09T12:17:27;7.47;;;6.87;;
15567;SDS011;7885;42.596;23.044;2022-09-09T12:20:02;8.97;;;7.00;;
15567;SDS011;7885;42.596;23.044;2022-09-09T12:22:37;8.90;;;7.40;;
15567;SDS011;7885;42.596;23.044;2022-09-09T12:25:16;9.70;;;7.87;;
15567;SDS011;7885;42.596;23.044;2022-09-09T12:27:54;7.83;;;7.13;;
15567;SDS011;7885;42.596;23.044;2022-09-09T12:30:29;9.07;;;7.63;;
15567;SDS011;7885;42.596;23.044;2022-09-09T12:33:01;8.50;;;7.70;;
15567;SDS011;7885;42.596;23.044;2022-09-09T12:35:28;8.73;;;7.77;;
15567;SDS011;7885;42.596;23.044;2022-09-09T12:37:58;9.50;;;8.60;;
15567;SDS011;7885;42.596;23.044;2022-09-09T12:40:28;9.37;;;7.47;;
15567;SDS011;7885;42.596;23.044;2022-09-09T12:42:57;8.70;;;7.67;;
15567;SDS011;7885;42.596;23.044;2022-09-09T12:45:26;8.57;;;7.67;;
15567;SDS011;7885;42.596;23.044;2022-09-09T12:47:57;8.40;;;7.37;;
15567;SDS011;7885;42.596;23.044;2022-09-09T12:50:27;8.03;;;6.73;;
15567;SDS011;7885;42.596;23.044;2022-09-09T12:52:57;7.33;;;6.20;;
15567;SDS011;7885;42.596;23.044;2022-09-09T12:55:28;7.13;;;6.53;;
15567;SDS011;7885;42.596;23.044;2022-09-09T12:57:58;6.80;;;6.20;;
15567;SDS011;7885;42.596;23.044;2022-09-09T13:00:29;8.30;;;6.60;;
15567;SDS011;7885;42.596;23.044;2022-09-09T13:02:56;10.00;;;6.40;;
15567;SDS011;7885;42.596;23.044;2022-09-09T13:05:25;8.97;;;6.53;;
15567;SDS011;7885;42.596;23.044;2022-09-09T13:08:01;7.33;;;6.10;;
15567;SDS011;7885;42.596;23.044;2022-09-09T13:10:29;7.70;;;6.10;;
15567;SDS011;7885;42.596;23.044;2022-09-09T13:12:59;7.13;;;6.43;;
15567;SDS011;7885;42.596;23.044;2022-09-09T13:15:27;8.97;;;6.53;;
15567;SDS011;7885;42.596;23.044;2022-09-09T13:17:56;7.10;;;6.27;;
15567;SDS011;7885;42.596;23.044;2022-09-09T13:20:26;7.17;;;6.47;;
15567;SDS011;7885;42.596;23.044;2022-09-09T13:22:56;10.03;;;7.30;;
15567;SDS011;7885;42.596;23.044;2022-09-09T13:25:25;7.77;;;6.43;;
15567;SDS011;7885;42.596;23.044;2022-09-09T13:27:55;12.13;;;7.10;;
15567;SDS011;7885;42.596;23.044;2022-09-09T13:30:24;6.77;;;6.17;;
15567;SDS011;7885;42.596;23.044;2022-09-09T13:33:03;8.30;;;6.20;;
15567;SDS011;7885;42.596;23.044;2022-09-09T13:35:45;7.20;;;6.37;;
15567;SDS011;7885;42.596;23.044;2022-09-09T13:38:15;7.03;;;6.43;;
15567;SDS011;7885;42.596;23.044;2022-09-09T13:40:52;7.07;;;6.37;;
15567;SDS011;7885;42.596;23.044;2022-09-09T13:43:22;7.93;;;5.60;;
15567;SDS011;7885;42.596;23.044;2022-09-09T13:45:55;7.33;;;5.93;;
15567;SDS011;7885;42.596;23.044;2022-09-09T13:48:23;8.23;;;6.30;;
15567;SDS011;7885;42.596;23.044;2022-09-09T13:50:54;9.17;;;6.40;;
15567;SDS011;7885;42.596;23.044;2022-09-09T13:53:22;6.60;;;5.90;;
15567;SDS011;7885;42.596;23.044;2022-09-09T13:55:48;8.67;;;5.67;;
15567;SDS011;7885;42.596;23.044;2022-09-09T13:58:18;8.13;;;5.70;;
15567;SDS011;7885;42.596;23.044;2022-09-09T14:00:46;7.33;;;5.93;;
15567;SDS011;7885;42.596;23.044;2022-09-09T14:03:14;7.40;;;6.63;;
15567;SDS011;7885;42.596;23.044;2022-09-09T14:05:41;6.67;;;6.00;;
15567;SDS011;7885;42.596;23.044;2022-09-09T14:08:11;6.80;;;5.87;;
15567;SDS011;7885;42.596;23.044;2022-09-09T14:10:45;9.83;;;6.70;;
15567;SDS011;7885;42.596;23.044;2022-09-09T14:13:11;7.00;;;6.40;;
15567;SDS011;7885;42.596;23.044;2022-09-09T14:15:39;7.90;;;6.63;;
15567;SDS011;7885;42.596;23.044;2022-09-09T14:18:08;10.00;;;6.50;;
15567;SDS011;7885;42.596;23.044;2022-09-09T14:20:37;8.23;;;6.70;;
15567;SDS011;7885;42.596;23.044;2022-09-09T14:23:04;6.77;;;6.07;;
15567;SDS011;7885;42.596;23.044;2022-09-09T14:25:30;7.43;;;6.50;;
15567;SDS011;7885;42.596;23.044;2022-09-09T14:27:58;6.33;;;5.73;;
15567;SDS011;7885;42.596;23.044;2022-09-09T14:30:25;7.70;;;6.33;;
15567;SDS011;7885;42.596;23.044;2022-09-09T14:32:53;6.93;;;6.03;;
15567;SDS011;7885;42.596;23.044;2022-09-09T14:35:20;6.70;;;6.00;;
15567;SDS011;7885;42.596;23.044;2022-09-09T14:37:47;6.90;;;5.77;;
15567;SDS011;7885;42.596;23.044;2022-09-09T14:40:14;7.70;;;6.53;;
15567;SDS011;7885;42.596;23.044;2022-09-09T14:42:41;9.60;;;6.17;;
15567;SDS011;7885;42.596;23.044;2022-09-09T14:45:08;6.83;;;6.13;;
15567;SDS011;7885;42.596;23.044;2022-09-09T14:47:36;9.10;;;6.77;;
15567;SDS011;7885;42.596;23.044;2022-09-09T14:50:05;7.10;;;6.23;;
15567;SDS011;7885;42.596;23.044;2022-09-09T14:52:33;7.83;;;5.97;;
15567;SDS011;7885;42.596;23.044;2022-09-09T14:55:00;7.20;;;6.33;;
15567;SDS011;7885;42.596;23.044;2022-09-09T14:57:26;7.00;;;6.17;;
15567;SDS011;7885;42.596;23.044;2022-09-09T14:59:53;7.23;;;6.10;;
15567;SDS011;7885;42.596;23.044;2022-09-09T15:02:20;8.73;;;5.97;;
15567;SDS011;7885;42.596;23.044;2022-09-09T15:04:46;9.10;;;6.00;;
15567;SDS011;7885;42.596;23.044;2022-09-09T15:07:16;8.13;;;5.40;;
15567;SDS011;7885;42.596;23.044;2022-09-09T15:09:44;7.22;;;6.03;;
15567;SDS011;7885;42.596;23.044;2022-09-09T15:12:12;6.75;;;5.68;;
15567;SDS011;7885;42.596;23.044;2022-09-09T15:14:39;10.43;;;5.85;;
15567;SDS011;7885;42.596;23.044;2022-09-09T15:17:06;10.93;;;6.10;;
15567;SDS011;7885;42.596;23.044;2022-09-09T15:19:32;7.28;;;5.82;;
15567;SDS011;7885;42.596;23.044;2022-09-09T15:22:00;7.68;;;5.30;;
15567;SDS011;7885;42.596;23.044;2022-09-09T15:24:28;9.70;;;5.15;;
15567;SDS011;7885;42.596;23.044;2022-09-09T15:26:54;11.88;;;5.40;;
15567;SDS011;7885;42.596;23.044;2022-09-09T15:29:21;6.00;;;5.30;;
15567;SDS011;7885;42.596;23.044;2022-09-09T15:31:48;9.77;;;5.90;;
15567;SDS011;7885;42.596;23.044;2022-09-09T15:34:15;7.27;;;5.57;;
15567;SDS011;7885;42.596;23.044;2022-09-09T15:36:42;7.47;;;5.80;;
15567;SDS011;7885;42.596;23.044;2022-09-09T15:39:12;8.73;;;5.93;;
15567;SDS011;7885;42.596;23.044;2022-09-09T15:41:42;7.67;;;5.83;;